Time;durP1;ratioP1;P1;durP2;ratioP2;P2;SDS_P1;SDS_P2;PMS_P1;PMS_P2;Temp;Humidity;BMP_temperature;BMP_pressure;BME280_temperature;BME280_humidity;BME280_pressure;Samples;Min_cycle;Max_cycle;Signal;HPM_P1;HPM_P2
2023/11/13 00:00:20;;;;;;;5.45;4.95;;;5.70;99.90;;;;;;5051804;28;20221;-67
2023/11/13 00:02:46;;;;;;;6.55;5.75;;;5.70;99.90;;;;;;5051650;28;20213;-67
2023/11/13 00:05:13;;;;;;;7.50;6.80;;;5.70;99.90;;;;;;5051793;28;20226;-67
2023/11/13 00:07:40;;;;;;;5.03;4.57;;;5.70;99.90;;;;;;5051359;28;20321;-67
2023/11/13 00:10:09;;;;;;;5.55;5.10;;;5.70;99.90;;;;;;5051667;28;20198;-67
2023/11/13 00:12:36;;;;;;;5.28;4.78;;;5.70;99.90;;;;;;5051643;28;20214;-67
2023/11/13 00:15:06;;;;;;;5.60;5.10;;;5.70;99.90;;;;;;5051408;28;20229;-67
2023/11/13 00:17:32;;;;;;;6.35;5.90;;;5.70;99.90;;;;;;5051648;28;20301;-67
2023/11/13 00:19:59;;;;;;;4.93;4.53;;;5.70;99.90;;;;;;5051491;28;20210;-67
2023/11/13 00:22:26;;;;;;;5.47;5.07;;;5.60;99.90;;;;;;5051830;28;20672;-67
2023/11/13 00:24:53;;;;;;;5.20;3.90;;;5.70;99.90;;;;;;5051213;28;20226;-67
2023/11/13 00:27:20;;;;;;;3.97;3.75;;;5.70;99.90;;;;;;5051174;28;20317;-66
2023/11/13 00:29:46;;;;;;;8.65;4.10;;;5.70;99.90;;;;;;5051757;28;20210;-67
2023/11/13 00:32:15;;;;;;;3.28;3.08;;;5.70;99.90;;;;;;5051237;28;20645;-67
2023/11/13 00:34:41;;;;;;;3.35;3.05;;;5.70;99.90;;;;;;5050896;28;20241;-67
2023/11/13 00:37:08;;;;;;;4.65;3.40;;;5.70;99.90;;;;;;5050776;28;20211;-67
2023/11/13 00:39:35;;;;;;;5.20;4.80;;;5.80;99.90;;;;;;5051344;28;20292;-67
2023/11/13 00:42:02;;;;;;;3.10;2.90;;;5.80;99.90;;;;;;5051219;28;20210;-67
2023/11/13 00:44:29;;;;;;;3.42;3.10;;;5.80;99.90;;;;;;5051277;28;20226;-67
2023/11/13 00:46:56;;;;;;;3.17;2.97;;;5.80;99.90;;;;;;5051168;28;20225;-67
2023/11/13 00:49:24;;;;;;;2.40;2.13;;;5.80;99.90;;;;;;5051241;28;20217;-67
2023/11/13 00:51:53;;;;;;;3.22;2.65;;;5.90;99.90;;;;;;5051342;28;20209;-67
2023/11/13 00:54:20;;;;;;;3.20;2.90;;;5.90;99.90;;;;;;5050123;28;20309;-67
2023/11/13 00:56:46;;;;;;;3.03;2.80;;;5.90;99.90;;;;;;5051216;28;20633;-67
2023/11/13 00:59:13;;;;;;;3.00;2.70;;;5.90;99.90;;;;;;5051290;28;20209;-67
2023/11/13 01:01:40;;;;;;;2.45;2.35;;;5.90;99.90;;;;;;5051053;28;20213;-67
2023/11/13 01:04:07;;;;;;;3.90;3.60;;;5.90;99.90;;;;;;5050759;28;20313;-67
2023/11/13 01:06:36;;;;;;;2.20;2.10;;;5.90;99.90;;;;;;5050514;28;20226;-67
2023/11/13 01:09:03;;;;;;;2.75;2.55;;;5.90;99.90;;;;;;5050758;28;20642;-67
2023/11/13 01:11:30;;;;;;;2.42;2.33;;;6.00;99.90;;;;;;5051191;28;20206;-67
2023/11/13 01:13:57;;;;;;;3.20;2.10;;;5.90;99.90;;;;;;5050375;28;20300;-67
2023/11/13 01:16:24;;;;;;;3.40;3.13;;;5.90;99.90;;;;;;5050009;28;20743;-67
2023/11/13 01:18:53;;;;;;;3.42;3.13;;;5.90;99.90;;;;;;5051034;28;20210;-67
2023/11/13 01:21:20;;;;;;;2.00;1.90;;;5.90;99.90;;;;;;5054463;28;20214;-66
2023/11/13 01:23:48;;;;;;;2.42;2.25;;;5.90;99.90;;;;;;5055106;28;20226;-67
2023/11/13 01:26:15;;;;;;;2.17;1.98;;;5.90;99.90;;;;;;5053684;28;20755;-67
2023/11/13 01:28:41;;;;;;;4.00;3.70;;;5.90;99.90;;;;;;5054750;28;20245;-67
2023/11/13 01:31:09;;;;;;;2.33;2.23;;;5.90;99.90;;;;;;5054585;28;20244;-66
2023/11/13 01:33:36;;;;;;;2.88;2.50;;;5.90;99.90;;;;;;5054085;28;20449;-67
2023/11/13 01:36:03;;;;;;;4.85;4.55;;;5.90;99.90;;;;;;5053610;28;20199;-67
2023/11/13 01:38:31;;;;;;;4.22;2.75;;;5.90;99.90;;;;;;5052392;28;20206;-67
2023/11/13 01:40:59;;;;;;;4.25;2.60;;;5.90;99.90;;;;;;5052534;28;20821;-67
2023/11/13 01:43:26;;;;;;;3.40;3.13;;;5.90;99.90;;;;;;5052584;28;20212;-67
2023/11/13 01:45:55;;;;;;;2.92;2.72;;;6.00;99.90;;;;;;5052198;28;20301;-66
2023/11/13 01:48:23;;;;;;;6.03;3.58;;;6.00;99.90;;;;;;5051649;28;20340;-67
2023/11/13 01:50:51;;;;;;;2.65;2.45;;;6.00;99.90;;;;;;5052889;28;20211;-66
2023/11/13 01:53:22;;;;;;;3.58;3.25;;;6.00;99.90;;;;;;5052639;28;20297;-67
2023/11/13 01:55:50;;;;;;;4.43;4.03;;;6.00;99.90;;;;;;5054371;28;20212;-67
2023/11/13 01:58:19;;;;;;;4.60;4.20;;;6.00;99.90;;;;;;5054356;28;20297;-67
2023/11/13 02:00:46;;;;;;;4.95;4.55;;;6.10;99.90;;;;;;5054396;28;20297;-66
2023/11/13 02:03:14;;;;;;;5.18;4.78;;;6.10;99.90;;;;;;5054129;28;20582;-66
2023/11/13 02:05:42;;;;;;;4.90;4.47;;;6.10;99.90;;;;;;5053927;28;20230;-67
2023/11/13 02:08:09;;;;;;;5.25;3.85;;;6.10;99.90;;;;;;5054104;28;20321;-66
2023/11/13 02:10:36;;;;;;;5.97;5.47;;;6.10;99.90;;;;;;5054159;28;20680;-66
2023/11/13 02:13:04;;;;;;;5.63;5.13;;;6.20;99.90;;;;;;5054069;28;20301;-66
2023/11/13 02:15:33;;;;;;;5.45;4.95;;;6.20;99.90;;;;;;5053938;28;20262;-66
2023/11/13 02:18:01;;;;;;;6.85;5.88;;;6.20;99.90;;;;;;5054028;28;20202;-66
2023/11/13 02:20:28;;;;;;;7.60;6.82;;;6.10;99.90;;;;;;5053993;28;20207;-66
2023/11/13 02:22:55;;;;;;;8.02;7.28;;;6.20;99.90;;;;;;5053221;28;20207;-66
2023/11/13 02:25:25;;;;;;;7.68;5.90;;;6.20;99.90;;;;;;5053765;28;20288;-66
2023/11/13 02:27:53;;;;;;;7.55;6.57;;;6.20;99.90;;;;;;5053397;28;20318;-66
2023/11/13 02:30:20;;;;;;;9.15;8.23;;;6.20;99.90;;;;;;5053618;28;20220;-66
2023/11/13 02:32:48;;;;;;;8.07;7.28;;;6.20;99.90;;;;;;5053943;28;20289;-66
2023/11/13 02:35:15;;;;;;;7.47;6.70;;;6.20;99.90;;;;;;5053258;28;20237;-66
2023/11/13 02:37:42;;;;;;;8.07;7.25;;;6.20;99.90;;;;;;5053237;28;20293;-66
2023/11/13 02:40:11;;;;;;;7.00;6.38;;;6.30;99.90;;;;;;5052327;28;20202;-66
2023/11/13 02:42:40;;;;;;;9.13;8.27;;;6.30;99.90;;;;;;5052817;28;20290;-66
2023/11/13 02:45:08;;;;;;;9.10;8.15;;;6.20;99.90;;;;;;5052661;28;20214;-66
2023/11/13 02:47:34;;;;;;;9.68;8.77;;;6.30;99.90;;;;;;5053256;28;20313;-66
2023/11/13 02:50:02;;;;;;;9.95;9.05;;;6.30;99.90;;;;;;5052716;28;20208;-66
2023/11/13 02:52:29;;;;;;;10.05;8.50;;;6.30;99.90;;;;;;5052759;28;20198;-66
2023/11/13 02:54:56;;;;;;;8.52;7.72;;;6.30;99.90;;;;;;5052749;28;20225;-66
2023/11/13 02:57:22;;;;;;;8.68;7.80;;;6.30;99.90;;;;;;5052638;28;20213;-66
2023/11/13 02:59:51;;;;;;;9.60;8.50;;;6.30;99.90;;;;;;5052375;28;20199;-65
2023/11/13 03:02:18;;;;;;;9.45;8.40;;;6.30;99.90;;;;;;5051399;28;20210;-65
2023/11/13 03:04:45;;;;;;;9.05;8.15;;;6.30;99.90;;;;;;5050185;28;20226;-65
2023/11/13 03:07:11;;;;;;;8.70;7.93;;;6.30;99.90;;;;;;5050754;28;20230;-65
2023/11/13 03:09:38;;;;;;;9.57;8.20;;;6.30;99.90;;;;;;5052551;28;20210;-65
2023/11/13 03:12:06;;;;;;;11.00;8.40;;;6.30;99.90;;;;;;5052936;28;20207;-65
2023/11/13 03:14:33;;;;;;;9.48;8.48;;;6.30;99.90;;;;;;5053108;28;20276;-64
2023/11/13 03:17:01;;;;;;;11.13;8.98;;;6.30;99.90;;;;;;5052897;28;20207;-64
2023/11/13 03:19:28;;;;;;;10.82;9.23;;;6.40;99.90;;;;;;5052805;28;20232;-65
2023/11/13 03:21:54;;;;;;;10.75;9.63;;;6.40;99.90;;;;;;5052865;28;20210;-65
2023/11/13 03:24:22;;;;;;;11.68;8.27;;;6.40;99.90;;;;;;5052667;28;20222;-65
2023/11/13 03:26:48;;;;;;;10.57;9.32;;;6.40;99.90;;;;;;5052674;28;20618;-65
2023/11/13 03:29:15;;;;;;;11.77;9.82;;;6.40;99.90;;;;;;5052940;28;20210;-65
2023/11/13 03:31:42;;;;;;;10.13;9.10;;;6.40;99.90;;;;;;5052785;28;20210;-65
2023/11/13 03:34:10;;;;;;;9.70;7.75;;;6.40;99.90;;;;;;5052467;28;20230;-65
2023/11/13 03:36:37;;;;;;;9.48;8.20;;;6.40;99.90;;;;;;5052346;28;20213;-64
2023/11/13 03:39:04;;;;;;;12.90;9.70;;;6.40;99.90;;;;;;5052250;28;20210;-64
2023/11/13 03:41:32;;;;;;;12.85;10.10;;;6.40;99.90;;;;;;5052239;28;20293;-64
2023/11/13 03:44:00;;;;;;;12.52;10.23;;;6.40;99.90;;;;;;5052422;28;20226;-64
2023/11/13 03:46:27;;;;;;;10.07;8.93;;;6.40;99.90;;;;;;5052076;28;20245;-64
2023/11/13 03:48:54;;;;;;;10.20;9.20;;;6.40;99.90;;;;;;5052055;28;20230;-64
2023/11/13 03:51:23;;;;;;;10.50;9.50;;;6.40;99.90;;;;;;5052186;28;20217;-64
2023/11/13 03:53:50;;;;;;;10.02;9.05;;;6.50;99.90;;;;;;5052305;28;20258;-64
2023/11/13 03:56:16;;;;;;;10.48;9.40;;;6.50;99.90;;;;;;5052080;28;20774;-64
2023/11/13 03:58:43;;;;;;;11.43;8.93;;;6.40;99.90;;;;;;5052258;28;20198;-65
2023/11/13 04:01:10;;;;;;;11.82;10.32;;;6.50;99.90;;;;;;5052109;28;20449;-64
2023/11/13 04:03:37;;;;;;;10.15;7.95;;;6.50;99.90;;;;;;5052142;28;20207;-64
2023/11/13 04:06:04;;;;;;;12.20;9.10;;;6.50;99.90;;;;;;5051826;28;20676;-64
2023/11/13 04:08:32;;;;;;;13.77;11.23;;;6.50;99.90;;;;;;5051926;28;20237;-65
2023/11/13 04:10:59;;;;;;;10.68;8.68;;;6.50;99.90;;;;;;5052137;28;20206;-64
2023/11/13 04:13:26;;;;;;;13.32;9.77;;;6.50;99.90;;;;;;5051944;28;20309;-64
2023/11/13 04:15:53;;;;;;;11.88;8.32;;;6.50;99.90;;;;;;5051612;28;20210;-64
2023/11/13 04:18:20;;;;;;;10.23;8.90;;;6.50;99.90;;;;;;5051699;28;20315;-64
2023/11/13 04:20:47;;;;;;;11.18;9.15;;;6.50;99.90;;;;;;5051456;28;20206;-64
2023/11/13 04:23:14;;;;;;;11.40;9.52;;;6.50;99.90;;;;;;5051593;28;20253;-64
2023/11/13 04:25:46;;;;;;;12.18;8.68;;;6.60;99.90;;;;;;5050461;28;20226;-64
2023/11/13 04:28:13;;;;;;;12.68;9.48;;;6.60;99.90;;;;;;5051651;28;20234;-64
2023/11/13 04:30:41;;;;;;;12.43;9.40;;;6.60;99.90;;;;;;5051687;28;20714;-64
2023/11/13 04:33:08;;;;;;;9.75;8.02;;;6.60;99.90;;;;;;5051625;28;20616;-64
2023/11/13 04:35:34;;;;;;;11.65;9.35;;;6.60;99.90;;;;;;5050930;28;20324;-64
2023/11/13 04:38:01;;;;;;;10.07;8.70;;;6.60;99.90;;;;;;5051626;28;20210;-63
2023/11/13 04:40:28;;;;;;;12.25;8.30;;;6.60;99.90;;;;;;5051757;28;20621;-64
2023/11/13 04:42:58;;;;;;;12.05;8.85;;;6.60;99.90;;;;;;5051613;28;20203;-64
2023/11/13 04:45:25;;;;;;;10.57;9.20;;;6.60;99.90;;;;;;5051368;28;20230;-64
2023/11/13 04:47:52;;;;;;;14.07;9.65;;;6.60;99.90;;;;;;5051034;28;20254;-63
2023/11/13 04:50:19;;;;;;;11.07;9.40;;;6.60;99.90;;;;;;5051276;28;20285;-64
2023/11/13 04:52:46;;;;;;;11.80;8.60;;;6.60;99.90;;;;;;5051435;28;20230;-64
2023/11/13 04:55:13;;;;;;;12.02;8.43;;;6.60;99.90;;;;;;5050436;28;20603;-64
2023/11/13 04:57:40;;;;;;;14.73;8.98;;;6.60;99.90;;;;;;5050986;28;20214;-63
2023/11/13 05:00:11;;;;;;;13.65;8.95;;;6.60;99.90;;;;;;5051206;28;20301;-64
2023/11/13 05:02:38;;;;;;;11.02;8.98;;;6.60;99.90;;;;;;5051028;28;20217;-64
2023/11/13 05:05:07;;;;;;;10.68;9.05;;;6.60;99.90;;;;;;5050825;28;20325;-64
2023/11/13 05:07:33;;;;;;;14.07;10.45;;;6.60;99.90;;;;;;5051005;28;20222;-64
2023/11/13 05:10:00;;;;;;;11.57;10.07;;;6.60;99.90;;;;;;5051217;28;20208;-63
2023/11/13 05:12:27;;;;;;;11.43;9.05;;;6.60;99.90;;;;;;5049978;28;20225;-63
2023/11/13 05:14:54;;;;;;;9.93;8.18;;;6.60;99.90;;;;;;5050761;28;20226;-63
2023/11/13 05:17:22;;;;;;;14.60;10.63;;;6.70;99.90;;;;;;5050608;28;20301;-63
2023/11/13 05:19:49;;;;;;;11.15;8.55;;;6.60;99.90;;;;;;5051179;28;20213;-64
2023/11/13 05:22:16;;;;;;;12.95;9.25;;;6.70;99.90;;;;;;5050928;28;20763;-64
2023/11/13 05:24:43;;;;;;;10.25;8.48;;;6.60;99.90;;;;;;5050871;28;20314;-64
2023/11/13 05:27:10;;;;;;;15.27;8.15;;;6.60;99.90;;;;;;5050484;28;20214;-64
2023/11/13 05:29:36;;;;;;;11.77;9.20;;;6.70;99.90;;;;;;5050779;28;20297;-64
2023/11/13 05:32:03;;;;;;;11.68;7.72;;;6.60;99.90;;;;;;5050749;28;20217;-64
2023/11/13 05:34:31;;;;;;;10.68;8.25;;;6.60;99.90;;;;;;5050733;28;20238;-64
2023/11/13 05:36:58;;;;;;;12.05;7.88;;;6.70;99.90;;;;;;5050533;28;20680;-64
2023/11/13 05:39:25;;;;;;;10.45;7.32;;;6.70;99.90;;;;;;5051022;28;20234;-64
2023/11/13 05:41:52;;;;;;;10.73;8.38;;;6.70;99.90;;;;;;5050881;28;20217;-64
2023/11/13 05:44:19;;;;;;;10.80;9.57;;;6.70;99.90;;;;;;5050536;28;20226;-64
2023/11/13 05:46:45;;;;;;;11.93;9.18;;;6.70;99.90;;;;;;5050337;28;20208;-64
2023/11/13 05:49:12;;;;;;;10.98;8.48;;;6.70;99.90;;;;;;5050823;28;20244;-64
2023/11/13 05:51:40;;;;;;;10.65;7.95;;;6.70;99.90;;;;;;5050742;28;20581;-64
2023/11/13 05:54:08;;;;;;;10.32;9.38;;;6.70;99.90;;;;;;5050615;28;20668;-64
2023/11/13 05:56:35;;;;;;;11.30;9.43;;;6.70;99.90;;;;;;5050361;28;20206;-64
2023/11/13 05:59:03;;;;;;;10.90;9.65;;;6.70;99.90;;;;;;5050384;28;20298;-64
2023/11/13 06:01:31;;;;;;;10.25;8.70;;;6.70;99.90;;;;;;5050781;28;20206;-64
2023/11/13 06:03:58;;;;;;;10.40;8.30;;;6.70;99.90;;;;;;5050665;28;20226;-64
2023/11/13 06:06:25;;;;;;;11.07;9.30;;;6.70;99.90;;;;;;5053043;28;20294;-64
2023/11/13 06:08:53;;;;;;;13.23;10.50;;;6.70;99.90;;;;;;5054148;28;20222;-64
2023/11/13 06:11:20;;;;;;;9.98;8.23;;;6.70;99.90;;;;;;5054135;28;20217;-64
2023/11/13 06:13:47;;;;;;;18.88;10.05;;;6.70;99.90;;;;;;5053976;28;20234;-64
2023/11/13 06:16:14;;;;;;;12.98;10.10;;;6.70;99.90;;;;;;5053970;28;20210;-64
2023/11/13 06:18:47;;;;;;;14.00;9.63;;;6.70;99.90;;;;;;5054170;28;20212;-64
2023/11/13 06:21:14;;;;;;;12.18;8.57;;;6.80;99.90;;;;;;5054046;28;20222;-64
2023/11/13 06:23:43;;;;;;;12.50;9.45;;;6.80;99.90;;;;;;5053806;28;20217;-63
2023/11/13 06:26:12;;;;;;;15.18;9.35;;;6.80;99.90;;;;;;5053483;28;20207;-63
2023/11/13 06:28:40;;;;;;;12.75;9.52;;;6.80;99.90;;;;;;5053989;28;20241;-64
2023/11/13 06:31:07;;;;;;;11.75;10.50;;;6.80;99.90;;;;;;5054040;28;20206;-64
2023/11/13 06:33:36;;;;;;;13.63;9.82;;;6.80;99.90;;;;;;5053650;28;20206;-64
2023/11/13 06:36:03;;;;;;;12.45;9.57;;;6.80;99.90;;;;;;5053254;28;20296;-64
2023/11/13 06:38:31;;;;;;;15.13;9.07;;;6.80;99.90;;;;;;5053444;28;20282;-64
2023/11/13 06:40:59;;;;;;;10.18;8.80;;;6.80;99.90;;;;;;5053725;28;20210;-64
2023/11/13 06:43:27;;;;;;;14.88;8.63;;;6.80;99.90;;;;;;5053524;28;20300;-65
2023/11/13 06:45:54;;;;;;;10.73;8.55;;;6.80;99.90;;;;;;5053350;28;20203;-64
2023/11/13 06:48:21;;;;;;;11.73;8.57;;;6.80;99.90;;;;;;5053403;28;20222;-64
2023/11/13 06:50:48;;;;;;;11.77;9.57;;;6.80;99.90;;;;;;5053477;28;20234;-64
2023/11/13 06:53:15;;;;;;;11.60;9.05;;;6.80;99.90;;;;;;5053229;28;20309;-64
2023/11/13 06:55:41;;;;;;;10.52;8.32;;;6.80;99.90;;;;;;5052969;28;20226;-64
2023/11/13 06:58:08;;;;;;;10.85;7.85;;;6.80;99.90;;;;;;5053219;28;20206;-64
2023/11/13 07:00:37;;;;;;;12.57;7.80;;;6.80;99.90;;;;;;5053928;28;20206;-64
2023/11/13 07:03:04;;;;;;;10.02;8.02;;;6.80;99.90;;;;;;5059186;28;20302;-64
2023/11/13 07:05:31;;;;;;;12.00;7.75;;;6.90;99.90;;;;;;5057528;28;20310;-65
2023/11/13 07:07:59;;;;;;;9.13;7.80;;;6.90;99.90;;;;;;5058061;28;20700;-64
2023/11/13 07:10:26;;;;;;;8.68;7.50;;;6.90;99.90;;;;;;5058026;28;20212;-65
2023/11/13 07:12:53;;;;;;;11.98;9.15;;;6.90;99.90;;;;;;5058351;28;20217;-64
2023/11/13 07:15:20;;;;;;;8.95;8.05;;;6.90;99.90;;;;;;5057630;28;20836;-64
2023/11/13 07:17:48;;;;;;;12.10;8.25;;;6.90;99.90;;;;;;5056501;28;20211;-65
2023/11/13 07:20:18;;;;;;;10.93;9.48;;;6.90;99.90;;;;;;5057917;28;20293;-64
2023/11/13 07:22:45;;;;;;;11.02;9.82;;;7.00;99.90;;;;;;5058232;28;20806;-64
2023/11/13 07:25:12;;;;;;;13.48;9.85;;;7.00;99.90;;;;;;5057730;28;20227;-64
2023/11/13 07:27:40;;;;;;;8.95;8.15;;;7.00;99.90;;;;;;5056475;28;20210;-65
2023/11/13 07:30:08;;;;;;;8.50;7.53;;;7.00;99.90;;;;;;5057315;28;20222;-65
2023/11/13 07:32:35;;;;;;;13.20;8.90;;;7.00;99.90;;;;;;5057500;28;20217;-64
2023/11/13 07:35:04;;;;;;;11.52;9.40;;;7.00;99.90;;;;;;5057243;28;20265;-64
2023/11/13 07:37:32;;;;;;;9.02;7.90;;;7.00;99.90;;;;;;5056905;28;20209;-65
2023/11/13 07:40:00;;;;;;;9.73;8.40;;;7.10;99.90;;;;;;5057684;28;20237;-64
2023/11/13 07:42:27;;;;;;;11.95;8.10;;;7.10;99.90;;;;;;5057292;28;20221;-64
2023/11/13 07:44:55;;;;;;;9.85;8.85;;;7.10;99.90;;;;;;5057028;28;20257;-65
2023/11/13 07:47:26;;;;;;;9.20;8.20;;;7.10;99.90;;;;;;5056363;28;20734;-64
2023/11/13 07:49:56;;;;;;;9.25;7.38;;;7.20;99.90;;;;;;5055629;28;20237;-65
2023/11/13 07:52:26;;;;;;;10.02;7.35;;;7.20;99.90;;;;;;5055315;28;20202;-65
2023/11/13 07:54:53;;;;;;;8.68;7.78;;;7.20;99.90;;;;;;5056254;28;20223;-64
2023/11/13 07:57:20;;;;;;;10.13;8.50;;;7.20;99.90;;;;;;5055851;28;20305;-64
2023/11/13 07:59:47;;;;;;;10.32;7.60;;;7.20;99.90;;;;;;5056595;28;20206;-65
2023/11/13 08:02:15;;;;;;;9.05;7.25;;;7.30;99.90;;;;;;5056083;28;20823;-65
2023/11/13 08:04:42;;;;;;;8.10;7.30;;;7.30;99.90;;;;;;5055609;28;20609;-64
2023/11/13 08:07:09;;;;;;;10.07;8.05;;;7.30;99.90;;;;;;5055376;28;20260;-65
2023/11/13 08:09:37;;;;;;;7.70;6.70;;;7.30;99.90;;;;;;5056143;28;20683;-64
2023/11/13 08:12:05;;;;;;;9.35;8.30;;;7.30;99.90;;;;;;5056243;28;20707;-64
2023/11/13 08:14:32;;;;;;;12.25;9.10;;;7.40;99.90;;;;;;5055492;28;20667;-64
2023/11/13 08:16:59;;;;;;;7.50;6.70;;;7.40;99.90;;;;;;5055532;28;20756;-64
2023/11/13 08:19:27;;;;;;;13.10;8.98;;;7.40;99.90;;;;;;5055473;28;20228;-64
2023/11/13 08:21:54;;;;;;;8.43;7.53;;;7.50;99.90;;;;;;5053294;28;20738;-64
2023/11/13 08:24:21;;;;;;;9.10;7.80;;;7.50;99.90;;;;;;5047376;28;20309;-64
2023/11/13 08:26:49;;;;;;;9.07;7.28;;;7.50;99.90;;;;;;5053592;28;20629;-64
2023/11/13 08:29:16;;;;;;;8.95;7.85;;;7.50;99.90;;;;;;5046233;28;20296;-64
2023/11/13 08:31:43;;;;;;;8.98;8.07;;;7.60;99.90;;;;;;5054270;28;20214;-64
2023/11/13 08:34:10;;;;;;;8.70;7.55;;;7.60;99.90;;;;;;5054069;28;20236;-64
2023/11/13 08:36:36;;;;;;;11.07;8.80;;;7.60;99.90;;;;;;5053598;28;20212;-64
2023/11/13 08:39:04;;;;;;;10.30;9.20;;;7.60;99.90;;;;;;5054376;28;20202;-64
2023/11/13 08:41:32;;;;;;;10.25;8.68;;;7.70;99.90;;;;;;5053378;28;20237;-64
2023/11/13 08:44:01;;;;;;;9.75;7.80;;;7.70;99.90;;;;;;5053778;28;20242;-64
2023/11/13 08:46:28;;;;;;;11.25;8.68;;;7.70;99.90;;;;;;5053705;28;20203;-64
2023/11/13 08:48:56;;;;;;;11.07;8.32;;;7.80;99.90;;;;;;5053293;28;20227;-64
2023/11/13 08:51:27;;;;;;;9.88;8.00;;;7.80;99.90;;;;;;5052935;28;20248;-64
2023/11/13 08:53:54;;;;;;;10.68;8.05;;;7.80;99.90;;;;;;5052683;28;20305;-64
2023/11/13 08:56:23;;;;;;;9.18;6.38;;;7.80;99.90;;;;;;5048957;28;20290;-64
2023/11/13 08:58:49;;;;;;;8.95;7.97;;;7.80;99.90;;;;;;5053248;28;20194;-64
2023/11/13 09:01:19;;;;;;;11.13;9.05;;;7.80;99.90;;;;;;5052813;28;20203;-64
2023/11/13 09:03:46;;;;;;;11.68;8.70;;;7.90;99.90;;;;;;5052705;28;20226;-64
2023/11/13 09:06:13;;;;;;;9.57;7.65;;;7.90;99.90;;;;;;5051762;28;20629;-64
2023/11/13 09:08:43;;;;;;;10.15;8.43;;;8.00;99.90;;;;;;5052588;28;20591;-64
2023/11/13 09:11:10;;;;;;;10.93;8.55;;;8.00;99.90;;;;;;5052616;28;20230;-63
2023/11/13 09:13:37;;;;;;;8.27;7.47;;;8.00;99.90;;;;;;5052890;28;20210;-64
2023/11/13 09:16:05;;;;;;;11.43;8.45;;;8.00;99.90;;;;;;5052425;28;20210;-64
2023/11/13 09:18:33;;;;;;;7.82;7.10;;;8.10;99.90;;;;;;5054059;28;20257;-64
2023/11/13 09:21:00;;;;;;;9.83;8.40;;;8.10;99.90;;;;;;5053498;28;20229;-64
2023/11/13 09:23:28;;;;;;;8.43;7.63;;;8.10;99.90;;;;;;5041995;28;20591;-64
2023/11/13 09:25:55;;;;;;;8.45;6.97;;;8.10;99.90;;;;;;5051177;28;20618;-64
2023/11/13 09:28:22;;;;;;;7.47;6.75;;;8.20;99.90;;;;;;5047957;28;20206;-63
2023/11/13 09:30:49;;;;;;;12.27;8.40;;;8.20;99.90;;;;;;5050581;28;20202;-64
2023/11/13 09:33:17;;;;;;;8.57;7.20;;;8.20;99.90;;;;;;5051293;28;20235;-64
2023/11/13 09:35:46;;;;;;;10.27;7.30;;;8.20;99.90;;;;;;5051459;28;20222;-64
2023/11/13 09:38:12;;;;;;;8.23;7.32;;;8.20;99.90;;;;;;5052310;28;20297;-64
2023/11/13 09:40:40;;;;;;;10.17;8.67;;;8.20;99.90;;;;;;5053843;28;20198;-64
2023/11/13 09:43:14;;;;;;;7.28;6.57;;;8.30;99.90;;;;;;5056481;28;20453;-64
2023/11/13 09:45:44;;;;;;;9.95;7.05;;;8.30;99.90;;;;;;5052380;28;20750;-64
2023/11/13 09:48:16;;;;;;;10.55;9.55;;;8.30;99.90;;;;;;5055391;28;20238;-64
2023/11/13 09:50:45;;;;;;;7.90;6.97;;;8.30;99.90;;;;;;5053348;28;20226;-64
2023/11/13 09:53:15;;;;;;;8.75;7.60;;;8.40;99.90;;;;;;5055641;28;20686;-64
2023/11/13 09:55:43;;;;;;;9.85;7.05;;;8.40;99.90;;;;;;5053375;28;20253;-65
2023/11/13 09:58:12;;;;;;;7.80;7.05;;;8.40;99.90;;;;;;5054557;28;20210;-64
2023/11/13 10:00:40;;;;;;;8.07;7.28;;;8.40;99.90;;;;;;5054206;28;20893;-65
2023/11/13 10:03:08;;;;;;;10.95;8.45;;;8.40;99.90;;;;;;5055738;28;20207;-65
2023/11/13 10:05:35;;;;;;;11.30;8.38;;;8.50;99.90;;;;;;5054749;28;20229;-65
2023/11/13 10:08:04;;;;;;;7.53;6.80;;;8.50;99.90;;;;;;5054040;28;20589;-65
2023/11/13 10:10:31;;;;;;;12.35;9.20;;;8.50;99.90;;;;;;5054530;28;20226;-65
2023/11/13 10:13:04;;;;;;;15.25;10.48;;;8.50;99.90;;;;;;5055055;28;20294;-65
2023/11/13 10:15:33;;;;;;;13.77;9.43;;;8.50;99.90;;;;;;5053654;28;20260;-65
2023/11/13 10:18:01;;;;;;;12.02;8.88;;;8.50;99.90;;;;;;5054832;28;20249;-64
2023/11/13 10:20:29;;;;;;;8.05;7.30;;;8.60;99.90;;;;;;5053830;28;20199;-64
2023/11/13 10:23:00;;;;;;;9.35;8.30;;;8.60;99.90;;;;;;5054662;28;20205;-64
2023/11/13 10:25:45;;;;;;;9.05;8.05;;;8.60;99.90;;;;;;5051007;28;20225;-64
2023/11/13 10:28:13;;;;;;;10.23;6.80;;;8.60;99.90;;;;;;5053756;28;20210;-65
2023/11/13 10:30:56;;;;;;;10.18;8.02;;;8.60;99.90;;;;;;5053989;28;20222;-65
2023/11/13 10:33:23;;;;;;;9.35;8.48;;;8.70;99.90;;;;;;5047219;28;20289;-64
2023/11/13 10:35:50;;;;;;;10.63;8.33;;;8.70;99.90;;;;;;5053728;28;20206;-65
2023/11/13 10:38:17;;;;;;;14.60;13.00;;;8.70;99.90;;;;;;5054240;28;20445;-64
2023/11/13 10:40:55;;;;;;;24.20;19.63;;;8.70;99.90;;;;;;5055153;28;20286;-64
2023/11/13 10:43:29;;;;;;;35.03;25.85;;;8.70;99.90;;;;;;5047190;28;20198;-64
2023/11/13 10:45:56;;;;;;;16.17;14.43;;;8.70;99.90;;;;;;5051142;28;20197;-63
2023/11/13 10:48:30;;;;;;;13.70;11.80;;;8.70;99.90;;;;;;5034601;28;20293;-64
2023/11/13 10:50:58;;;;;;;11.48;9.43;;;8.80;99.90;;;;;;5051703;28;20477;-64
2023/11/13 10:53:27;;;;;;;12.68;11.55;;;8.80;99.90;;;;;;5054830;28;20210;-64
2023/11/13 10:55:57;;;;;;;13.87;11.73;;;8.80;99.90;;;;;;5054266;28;20677;-65
2023/11/13 10:58:24;;;;;;;12.98;11.80;;;8.90;99.90;;;;;;5054495;28;20480;-64
2023/11/13 11:00:52;;;;;;;12.95;11.70;;;8.90;99.90;;;;;;5054978;28;20206;-65
2023/11/13 11:03:24;;;;;;;13.98;11.10;;;8.90;99.90;;;;;;5053743;28;20301;-65
2023/11/13 11:05:56;;;;;;;11.18;10.13;;;9.00;99.90;;;;;;5054090;28;20210;-64
2023/11/13 11:08:25;;;;;;;11.10;10.00;;;9.00;99.90;;;;;;5054546;28;20206;-64
2023/11/13 11:10:55;;;;;;;14.55;10.55;;;9.00;99.90;;;;;;5054810;28;20652;-64
2023/11/13 11:13:22;;;;;;;15.53;14.07;;;9.00;99.90;;;;;;5053995;28;20210;-64
2023/11/13 11:16:18;;;;;;;12.55;11.35;;;9.00;99.90;;;;;;5053577;28;20514;-65
2023/11/13 11:18:50;;;;;;;11.70;10.43;;;9.10;99.90;;;;;;5054350;28;20242;-64
2023/11/13 11:21:31;;;;;;;12.25;10.90;;;9.10;99.90;;;;;;5053455;28;20237;-63
2023/11/13 11:24:05;;;;;;;10.53;9.23;;;9.10;99.90;;;;;;5053563;28;20284;-65
2023/11/13 11:26:54;;;;;;;11.90;10.07;;;9.20;99.90;;;;;;5053080;28;20480;-64
2023/11/13 11:29:37;;;;;;;11.03;9.87;;;9.20;99.90;;;;;;5053420;28;20888;-65
2023/11/13 11:32:20;;;;;;;11.90;9.90;;;9.30;99.90;;;;;;5052470;28;20441;-65
2023/11/13 11:34:51;;;;;;;13.90;12.23;;;9.30;99.90;;;;;;5052035;28;20487;-64
2023/11/13 11:37:19;;;;;;;13.95;9.07;;;9.40;99.90;;;;;;5052779;28;20214;-65
2023/11/13 11:39:47;;;;;;;10.73;7.20;;;9.40;99.90;;;;;;5052743;28;20583;-64
2023/11/13 11:42:22;;;;;;;12.73;6.30;;;9.50;99.90;;;;;;5052991;28;20455;-65
2023/11/13 11:45:01;;;;;;;11.75;7.20;;;9.50;99.90;;;;;;5052442;28;20488;-65
2023/11/13 11:47:28;;;;;;;8.17;6.47;;;9.60;99.90;;;;;;5052967;28;20206;-65
2023/11/13 11:49:57;;;;;;;12.55;7.15;;;9.70;99.90;;;;;;5053058;28;20531;-65
2023/11/13 11:52:48;;;;;;;13.97;7.40;;;9.70;99.90;;;;;;5053310;28;20249;-65
2023/11/13 11:55:16;;;;;;;11.80;6.25;;;9.80;99.90;;;;;;5052750;28;20469;-65
2023/11/13 11:57:46;;;;;;;11.43;6.20;;;9.80;99.90;;;;;;5053201;28;20214;-65
2023/11/13 12:00:19;;;;;;;7.90;5.17;;;9.80;99.90;;;;;;5053676;28;20488;-63
2023/11/13 12:02:46;;;;;;;6.80;6.10;;;9.80;99.90;;;;;;5052893;28;20962;-64
2023/11/13 12:05:14;;;;;;;8.30;5.27;;;9.90;99.90;;;;;;5053168;28;20468;-65
2023/11/13 12:07:41;;;;;;;6.17;5.10;;;9.90;99.90;;;;;;5053060;28;20908;-65
2023/11/13 12:10:10;;;;;;;6.67;4.87;;;9.90;99.90;;;;;;5053755;28;20858;-65
2023/11/13 12:12:37;;;;;;;9.50;5.97;;;9.90;99.90;;;;;;5053358;28;20886;-65
2023/11/13 12:15:07;;;;;;;5.27;4.23;;;10.00;99.90;;;;;;5052729;28;20469;-65
2023/11/13 12:17:35;;;;;;;8.87;5.07;;;10.00;99.90;;;;;;5052704;28;20450;-65
2023/11/13 12:20:06;;;;;;;8.77;5.70;;;10.00;99.90;;;;;;5052780;28;20444;-65
2023/11/13 12:22:34;;;;;;;6.33;4.53;;;10.00;99.90;;;;;;5053634;28;20445;-65
2023/11/13 12:25:03;;;;;;;9.77;5.90;;;10.00;99.90;;;;;;5053927;28;21041;-65
2023/11/13 12:27:30;;;;;;;7.20;5.63;;;10.10;99.90;;;;;;5053756;28;20464;-65
2023/11/13 12:30:01;;;;;;;5.83;5.17;;;10.10;99.90;;;;;;5054735;28;20523;-65
2023/11/13 12:32:30;;;;;;;6.73;5.33;;;10.10;99.90;;;;;;5052847;28;20449;-65
2023/11/13 12:34:57;;;;;;;10.63;5.23;;;10.10;99.90;;;;;;5053007;28;20485;-65
2023/11/13 12:37:26;;;;;;;6.73;5.97;;;10.10;99.90;;;;;;5052474;28;20455;-65
2023/11/13 12:39:54;;;;;;;8.40;6.60;;;10.10;99.90;;;;;;5053577;28;20459;-65
2023/11/13 12:42:21;;;;;;;9.40;5.80;;;10.10;99.90;;;;;;5053701;28;21054;-65
2023/11/13 12:44:48;;;;;;;9.10;5.90;;;10.20;99.90;;;;;;5053384;28;20503;-65
2023/11/13 12:47:16;;;;;;;7.43;5.50;;;10.20;99.90;;;;;;5052130;28;20535;-65
2023/11/13 12:49:47;;;;;;;11.10;5.53;;;10.20;99.90;;;;;;5052070;28;20453;-64
2023/11/13 12:52:16;;;;;;;10.80;5.97;;;10.20;99.90;;;;;;5052245;28;20444;-64
2023/11/13 12:54:44;;;;;;;11.20;6.13;;;10.30;99.90;;;;;;5051918;28;20472;-64